createdAt,value
2019-05-18T00:01:58.870Z,99.90
2019-05-18T00:04:28.155Z,99.90
2019-05-18T00:06:57.437Z,99.90
2019-05-18T00:09:26.878Z,99.90
2019-05-18T00:11:58.487Z,99.90
2019-05-18T00:14:27.788Z,99.90
2019-05-18T00:16:57.127Z,99.90
2019-05-18T00:19:27.794Z,99.90
2019-05-18T00:21:57.244Z,99.90
2019-05-18T00:24:28.347Z,99.90
2019-05-18T00:26:57.717Z,99.90
2019-05-18T00:29:27.760Z,99.90
2019-05-18T00:31:57.127Z,99.90
2019-05-18T00:34:26.547Z,99.90
2019-05-18T00:36:56.665Z,99.90
2019-05-18T00:39:25.998Z,99.90
2019-05-18T00:41:55.569Z,99.90
2019-05-18T00:44:24.842Z,99.90
2019-05-18T00:46:54.124Z,99.90
2019-05-18T00:49:23.499Z,99.90
2019-05-18T00:51:52.914Z,99.90
2019-05-18T00:54:22.286Z,99.90
2019-05-18T00:56:51.771Z,99.90
2019-05-18T00:59:21.127Z,99.90
2019-05-18T01:01:51.553Z,99.90
2019-05-18T01:04:21.309Z,99.90
2019-05-18T01:06:50.688Z,99.90
2019-05-18T01:09:20.008Z,99.90
2019-05-18T01:11:51.627Z,99.90
2019-05-18T01:14:21.025Z,99.90
2019-05-18T01:16:52.700Z,99.90
2019-05-18T01:19:22.068Z,99.90
2019-05-18T01:21:52.862Z,99.90
2019-05-18T01:24:23.253Z,99.90
2019-05-18T01:26:52.546Z,99.90
2019-05-18T01:29:21.924Z,99.90
2019-05-18T01:31:51.364Z,99.90
2019-05-18T01:34:20.616Z,99.90
2019-05-18T01:36:49.912Z,99.90
2019-05-18T01:39:19.208Z,99.90
2019-05-18T01:41:48.684Z,99.90
2019-05-18T01:44:18.004Z,99.90
2019-05-18T01:46:47.360Z,99.90
2019-05-18T01:49:16.671Z,99.90
2019-05-18T01:51:45.935Z,99.90
2019-05-18T01:54:15.297Z,99.90
2019-05-18T01:56:44.703Z,99.90
2019-05-18T01:59:14.155Z,99.90
2019-05-18T02:01:43.568Z,99.90
2019-05-18T02:04:12.894Z,99.90
2019-05-18T02:06:42.181Z,99.90
2019-05-18T02:09:11.599Z,99.90
2019-05-18T02:11:40.880Z,99.90
2019-05-18T02:14:10.230Z,99.90
2019-05-18T02:16:39.621Z,99.90
2019-05-18T02:19:08.967Z,99.90
2019-05-18T02:21:40.639Z,99.90
2019-05-18T02:24:09.976Z,99.90
2019-05-18T02:26:39.273Z,99.90
2019-05-18T02:29:08.539Z,99.90
2019-05-18T02:31:39.172Z,99.90
2019-05-18T02:34:08.740Z,99.90
2019-05-18T02:36:38.108Z,99.90
2019-05-18T02:39:08.197Z,99.90
2019-05-18T02:41:37.878Z,99.90
2019-05-18T02:44:07.372Z,99.90
2019-05-18T02:46:36.756Z,99.90
2019-05-18T02:49:06.170Z,99.90
2019-05-18T02:51:35.532Z,99.90
2019-05-18T02:54:04.964Z,99.90
2019-05-18T02:56:34.336Z,99.90
2019-05-18T02:59:05.734Z,99.90
2019-05-18T03:01:37.619Z,99.90
2019-05-18T03:04:06.992Z,99.90
2019-05-18T03:06:36.325Z,99.90
2019-05-18T03:09:07.040Z,99.90
2019-05-18T03:11:36.467Z,99.90
2019-05-18T03:14:05.909Z,99.90
2019-05-18T03:16:35.323Z,99.90
2019-05-18T03:19:08.748Z,99.90
2019-05-18T03:21:35.981Z,99.90
2019-05-18T03:24:05.239Z,99.90
2019-05-18T03:26:34.578Z,99.90
2019-05-18T03:29:03.809Z,99.90
2019-05-18T03:31:33.060Z,99.90
2019-05-18T03:34:02.394Z,99.90
2019-05-18T03:36:31.727Z,99.90
2019-05-18T03:39:01.075Z,99.90
2019-05-18T03:41:30.471Z,99.90
2019-05-18T03:43:59.891Z,99.90
2019-05-18T03:46:29.268Z,99.90
2019-05-18T03:48:58.552Z,99.90
2019-05-18T03:51:27.877Z,99.90
2019-05-18T03:53:57.173Z,99.90
2019-05-18T03:56:26.462Z,99.90
2019-05-18T03:58:55.757Z,99.90
2019-05-18T04:01:27.231Z,99.90
2019-05-18T04:03:57.642Z,99.90
2019-05-18T04:06:28.795Z,99.90
2019-05-18T04:09:00.358Z,99.90
2019-05-18T04:11:29.693Z,99.90
2019-05-18T04:13:59.113Z,99.90
2019-05-18T04:16:28.423Z,99.90
2019-05-18T04:18:57.688Z,99.90
2019-05-18T04:21:26.963Z,99.90
2019-05-18T04:23:56.210Z,99.90
2019-05-18T04:26:25.482Z,99.90
2019-05-18T04:28:54.844Z,99.90
2019-05-18T04:31:24.124Z,99.90
2019-05-18T04:33:53.559Z,99.90
2019-05-18T04:36:22.887Z,99.90
2019-05-18T04:38:52.175Z,99.90
2019-05-18T04:41:21.563Z,99.90
2019-05-18T04:43:50.889Z,99.90
2019-05-18T04:46:20.171Z,99.90
2019-05-18T04:48:49.472Z,99.90
2019-05-18T04:51:18.764Z,99.90
2019-05-18T04:53:47.976Z,99.90
2019-05-18T04:56:17.287Z,99.90
2019-05-18T04:58:46.543Z,99.90
2019-05-18T05:01:15.838Z,99.90
2019-05-18T05:03:45.441Z,99.90
2019-05-18T05:06:14.953Z,99.90
2019-05-18T05:08:44.268Z,99.90
2019-05-18T05:11:13.532Z,99.90
2019-05-18T05:13:42.905Z,99.90
2019-05-18T05:16:12.585Z,99.90
2019-05-18T05:18:41.951Z,99.90
2019-05-18T05:21:11.378Z,99.90
2019-05-18T05:23:40.656Z,99.90
2019-05-18T05:26:09.938Z,99.90
2019-05-18T05:28:39.269Z,99.90
2019-05-18T05:31:08.669Z,99.90
2019-05-18T05:33:38.017Z,99.90
2019-05-18T05:36:07.630Z,99.90
2019-05-18T05:38:37.154Z,99.90
2019-05-18T05:41:08.185Z,99.90
2019-05-18T05:43:37.786Z,99.90
2019-05-18T05:46:07.280Z,99.90
2019-05-18T05:48:36.559Z,99.90
2019-05-18T05:51:11.235Z,99.90
2019-05-18T06:03:58.632Z,99.90
2019-05-18T06:07:12.218Z,99.90
2019-05-18T06:09:45.315Z,99.90
2019-05-18T06:15:42.073Z,99.90
2019-05-18T06:18:36.647Z,99.90
2019-05-18T06:21:17.752Z,99.90
2019-05-18T06:24:09.335Z,99.90
2019-05-18T06:30:06.946Z,99.90
2019-05-18T06:35:30.871Z,99.90
2019-05-18T06:38:04.968Z,99.90
2019-05-18T06:40:37.897Z,99.90
2019-05-18T06:43:58.322Z,99.90
2019-05-18T06:46:30.248Z,99.90
2019-05-18T06:52:19.434Z,99.90
2019-05-18T06:58:32.719Z,99.90
2019-05-18T07:04:13.005Z,99.90
2019-05-18T07:06:42.868Z,99.90
2019-05-18T07:22:56.858Z,99.90
2019-05-18T07:24:57.697Z,99.90
2019-05-18T07:27:31.568Z,99.90
2019-05-18T07:30:01.204Z,99.90
2019-05-18T07:33:13.372Z,99.90
2019-05-18T07:36:45.484Z,99.90
2019-05-18T07:39:48.602Z,99.90
2019-05-18T07:46:43.212Z,99.90
2019-05-18T07:50:00.168Z,99.90
2019-05-18T07:53:04.560Z,99.90
2019-05-18T07:55:35.160Z,99.90
2019-05-18T07:58:12.470Z,99.90
2019-05-18T08:01:38.665Z,99.90
2019-05-18T08:04:17.478Z,99.90
2019-05-18T08:07:20.535Z,99.90
2019-05-18T08:09:54.734Z,99.90
2019-05-18T08:15:10.056Z,99.90
2019-05-18T08:21:13.891Z,99.90
2019-05-18T08:23:45.387Z,99.90
2019-05-18T08:26:23.320Z,99.90
2019-05-18T08:29:12.465Z,99.90
2019-05-18T08:44:55.414Z,99.90
2019-05-18T08:47:36.824Z,99.90
2019-05-18T08:50:51.991Z,99.90
2019-05-18T08:54:08.109Z,99.90
2019-05-18T10:13:46.645Z,95.80
2019-05-18T10:16:18.971Z,95.70
2019-05-18T10:18:48.372Z,95.90
2019-05-18T10:21:17.796Z,95.30
2019-05-18T10:23:48.233Z,95.00
2019-05-18T10:26:20.146Z,94.90
2019-05-18T10:28:49.411Z,94.50
2019-05-18T10:31:18.874Z,94.20
2019-05-18T10:33:48.160Z,93.80
2019-05-18T10:36:17.406Z,93.70
2019-05-18T10:38:46.661Z,93.40
2019-05-18T10:41:16.003Z,92.80
2019-05-18T10:43:46.867Z,93.10
2019-05-18T10:46:16.270Z,93.40
2019-05-18T10:48:45.485Z,93.30
2019-05-18T10:51:21.261Z,93.10
2019-05-18T10:53:57.314Z,92.60
2019-05-18T10:56:27.233Z,92.40
2019-05-18T10:58:57.497Z,92.40
2019-05-18T11:01:27.004Z,92.30
2019-05-18T11:03:57.001Z,91.80
2019-05-18T11:06:32.116Z,91.50
2019-05-18T11:09:01.893Z,90.40
2019-05-18T11:11:38.496Z,89.70
2019-05-18T11:14:09.168Z,90.30
2019-05-18T11:16:39.024Z,89.90
2019-05-18T11:19:08.786Z,90.30
2019-05-18T11:21:48.423Z,90.10
2019-05-18T11:24:32.186Z,89.50
2019-05-18T11:27:04.916Z,89.30
2019-05-18T11:29:34.288Z,90.00
2019-05-18T11:32:08.606Z,88.70
2019-05-18T11:34:38.941Z,88.70
2019-05-18T11:37:08.563Z,87.50
2019-05-18T11:40:10.099Z,86.80
2019-05-18T11:42:54.096Z,86.30
2019-05-18T11:45:33.965Z,86.50
2019-05-18T11:48:05.041Z,86.90
2019-05-18T11:50:36.015Z,86.40
2019-05-18T11:53:05.443Z,84.80
2019-05-18T11:55:34.929Z,83.90
2019-05-18T11:58:04.331Z,83.70
2019-05-18T12:00:34.085Z,83.30
2019-05-18T12:03:28.897Z,82.80
2019-05-18T14:04:41.746Z,67.60
2019-05-18T14:26:42.251Z,66.80
2019-05-18T14:29:26.142Z,66.20
2019-05-18T14:35:33.389Z,65.30
2019-05-18T14:38:02.357Z,65.10
2019-05-18T14:40:31.469Z,64.50
2019-05-18T14:43:00.404Z,64.70
2019-05-18T14:45:29.461Z,64.50
2019-05-18T14:48:01.950Z,65.00
2019-05-18T14:50:31.161Z,63.50
2019-05-18T14:53:11.522Z,64.20
2019-05-18T14:55:46.864Z,63.80
2019-05-18T14:58:42.806Z,64.70
2019-05-18T15:01:11.856Z,64.70
2019-05-18T15:03:40.944Z,64.10
2019-05-18T15:06:10.301Z,64.30
2019-05-18T15:08:39.275Z,64.30
2019-05-18T15:11:09.566Z,63.70
2019-05-18T15:13:38.604Z,63.40
2019-05-18T15:16:07.723Z,63.30
2019-05-18T15:18:37.561Z,64.40
2019-05-18T15:21:06.733Z,63.60
2019-05-18T15:23:35.839Z,62.70
2019-05-18T15:26:05.673Z,62.90
2019-05-18T15:28:34.711Z,63.40
2019-05-18T15:33:08.943Z,63.60
2019-05-18T15:35:38.028Z,64.50
2019-05-18T15:38:07.167Z,64.40
2019-05-18T15:40:36.102Z,64.50
2019-05-18T15:43:05.611Z,64.40
2019-05-18T15:45:34.695Z,63.10
2019-05-18T15:48:03.789Z,63.60
2019-05-18T15:50:32.873Z,63.60
2019-05-18T15:53:02.883Z,63.60
2019-05-18T15:55:34.390Z,63.20
2019-05-18T15:58:03.576Z,63.40
2019-05-18T16:00:32.639Z,64.00
2019-05-18T16:03:03.216Z,64.60
2019-05-18T16:05:32.352Z,64.70
2019-05-18T16:08:01.448Z,64.70
2019-05-18T16:10:32.086Z,64.10
2019-05-18T16:13:01.012Z,64.90
2019-05-18T16:15:29.974Z,64.80
2019-05-18T16:17:58.982Z,65.60
2019-05-18T16:20:27.973Z,65.40
2019-05-18T16:22:57.864Z,65.00
2019-05-18T16:25:27.533Z,65.60
2019-05-18T16:27:56.494Z,65.80
2019-05-18T16:30:25.887Z,66.00
2019-05-18T16:33:05.865Z,65.60
2019-05-18T16:36:08.016Z,65.80
2019-05-18T16:42:42.130Z,65.40
2019-05-18T16:45:17.832Z,65.50
2019-05-18T16:47:47.283Z,66.10
2019-05-18T16:50:16.812Z,66.40
2019-05-18T16:52:48.850Z,66.60
2019-05-18T16:55:19.822Z,66.60
2019-05-18T16:57:48.791Z,66.90
2019-05-18T17:01:37.436Z,66.30
2019-05-18T17:04:45.295Z,66.60
2019-05-18T17:07:15.086Z,66.30
2019-05-18T17:09:45.516Z,66.40
2019-05-18T17:12:15.777Z,66.50
2019-05-18T17:14:45.042Z,65.50
2019-05-18T17:17:14.324Z,66.00
2019-05-18T17:19:44.632Z,66.40
2019-05-18T17:22:14.241Z,66.40
2019-05-18T17:24:45.190Z,67.20
2019-05-18T17:27:16.287Z,66.50
2019-05-18T17:29:47.205Z,66.40
2019-05-18T17:32:16.496Z,66.60
2019-05-18T17:41:14.518Z,66.80
2019-05-18T17:44:08.217Z,66.90
2019-05-18T17:46:38.998Z,67.20
2019-05-18T17:49:24.587Z,67.20
2019-05-18T17:51:39.649Z,67.20
2019-05-18T17:54:09.036Z,67.60
2019-05-18T17:56:42.844Z,68.00
2019-05-18T17:59:20.470Z,68.00
2019-05-18T18:01:51.448Z,68.40
2019-05-18T18:04:20.762Z,68.70
2019-05-18T18:06:50.242Z,69.00
2019-05-18T18:09:20.901Z,69.20
2019-05-18T18:11:50.382Z,69.60
2019-05-18T18:14:19.899Z,70.00
2019-05-18T18:16:49.172Z,70.90
2019-05-18T18:19:18.397Z,70.40
2019-05-18T18:21:47.640Z,70.70
2019-05-18T18:24:17.616Z,70.70
2019-05-18T18:26:49.206Z,71.20
2019-05-18T18:29:18.551Z,71.80
2019-05-18T18:31:47.993Z,72.20
2019-05-18T18:34:19.806Z,72.60
2019-05-18T18:36:49.058Z,73.00
2019-05-18T18:39:18.359Z,73.40
2019-05-18T18:41:49.910Z,73.90
2019-05-18T18:44:19.131Z,74.30
2019-05-18T18:47:30.898Z,74.70
2019-05-18T18:50:00.191Z,75.10
2019-05-18T18:52:29.408Z,75.70
2019-05-18T18:54:58.669Z,76.10
2019-05-18T18:57:40.580Z,76.50
2019-05-18T18:59:59.650Z,77.20
2019-05-18T19:02:28.951Z,77.50
2019-05-18T19:05:00.555Z,77.90
2019-05-18T19:07:44.480Z,78.60
2019-05-18T19:10:14.082Z,78.80
2019-05-18T19:12:43.312Z,80.10
2019-05-18T19:15:13.990Z,80.70
2019-05-18T19:17:49.332Z,81.10
2019-05-18T19:20:19.308Z,81.60
2019-05-18T19:22:52.556Z,81.90
2019-05-18T19:25:23.490Z,82.30
2019-05-18T19:27:55.430Z,82.50
2019-05-18T19:34:25.298Z,83.60
2019-05-18T19:36:58.972Z,84.00
2019-05-18T19:39:28.234Z,84.70
2019-05-18T19:41:59.222Z,85.20
2019-05-18T19:44:30.337Z,86.50
2019-05-18T19:47:03.870Z,86.10
2019-05-18T19:49:53.562Z,86.90
2019-05-18T19:52:22.925Z,87.50
2019-05-18T19:54:52.364Z,88.30
2019-05-18T19:57:21.632Z,88.70
2019-05-18T19:59:50.946Z,89.10
2019-05-18T20:02:20.206Z,89.40
2019-05-18T20:05:05.582Z,90.00
2019-05-18T20:07:20.532Z,90.20
2019-05-18T20:09:52.906Z,90.70
2019-05-18T20:12:25.802Z,91.30
2019-05-18T20:14:55.195Z,91.50
2019-05-18T20:17:24.513Z,92.00
2019-05-18T20:22:46.427Z,93.20
2019-05-18T20:25:17.677Z,94.00
2019-05-18T20:27:46.953Z,94.70
2019-05-18T20:30:17.693Z,95.40
2019-05-18T20:32:46.922Z,96.50
2019-05-18T20:39:03.858Z,98.30
2019-05-18T20:45:18.807Z,99.90
2019-05-18T20:47:59.839Z,99.90
2019-05-18T20:50:31.292Z,99.90
2019-05-18T20:53:05.840Z,99.90
2019-05-18T20:55:39.083Z,99.90
2019-05-18T20:58:09.099Z,99.90
2019-05-18T21:04:41.754Z,99.90
2019-05-18T21:08:07.455Z,99.90
2019-05-18T21:11:00.064Z,99.90
2019-05-18T21:14:11.085Z,99.90
2019-05-18T21:17:30.528Z,99.90
2019-05-18T21:23:18.073Z,99.90
2019-05-18T21:25:47.620Z,99.90
2019-05-18T21:28:18.037Z,99.90
2019-05-18T21:31:18.953Z,99.90
2019-05-18T21:33:49.971Z,99.90
2019-05-18T21:36:31.152Z,99.90
2019-05-18T21:39:06.581Z,99.90
2019-05-18T21:41:56.550Z,99.90
2019-05-18T21:44:26.647Z,99.90
2019-05-18T21:46:57.893Z,99.90
2019-05-18T21:49:31.819Z,99.90
2019-05-18T21:52:01.148Z,99.90
2019-05-18T21:54:41.035Z,99.90
2019-05-18T21:57:11.289Z,99.90
2019-05-18T22:07:17.489Z,99.90
2019-05-18T22:13:44.155Z,99.90
2019-05-18T22:16:13.610Z,99.90
2019-05-18T22:18:49.406Z,99.90
2019-05-18T22:21:18.715Z,99.90
2019-05-18T22:23:48.094Z,99.90
2019-05-18T22:26:17.605Z,99.90
2019-05-18T22:28:47.158Z,99.90
2019-05-18T22:31:19.491Z,99.90
2019-05-18T22:33:50.135Z,99.90
2019-05-18T22:36:19.499Z,99.90
2019-05-18T22:38:51.945Z,99.90
2019-05-18T22:41:26.111Z,99.90
2019-05-18T22:43:55.442Z,99.90
2019-05-18T22:46:24.788Z,99.90
2019-05-18T22:48:54.087Z,99.90
2019-05-18T22:51:23.896Z,99.90
2019-05-18T22:53:57.408Z,99.90
2019-05-18T22:56:34.340Z,99.90
2019-05-18T22:59:03.990Z,99.90
2019-05-18T23:01:33.481Z,99.90
2019-05-18T23:04:02.845Z,99.90
2019-05-18T23:06:32.201Z,99.90
2019-05-18T23:09:01.463Z,99.90
2019-05-18T23:11:30.774Z,99.90
2019-05-18T23:14:24.738Z,99.90
2019-05-18T23:16:54.439Z,99.90
2019-05-18T23:19:25.196Z,99.90
2019-05-18T23:21:55.560Z,99.90
2019-05-18T23:24:25.544Z,99.90
2019-05-18T23:26:54.935Z,99.90
2019-05-18T23:29:24.206Z,99.90
2019-05-18T23:31:56.623Z,99.90
2019-05-18T23:34:26.998Z,99.90
2019-05-18T23:36:56.603Z,99.90
2019-05-18T23:39:25.907Z,99.90
2019-05-18T23:41:55.273Z,99.90
2019-05-18T23:44:24.615Z,99.90
2019-05-18T23:46:55.008Z,99.90
2019-05-18T23:49:24.337Z,99.90
2019-05-18T23:51:54.196Z,99.90
2019-05-18T23:54:23.563Z,99.90
2019-05-18T23:56:52.867Z,99.90
2019-05-18T23:59:22.185Z,99.90
